Terminal Aerodrome Forecast
Issued by NWS

Home | Current Version | Previous Version | Text Only | Print | Product List | Glossary On
Versions: 1 2 3 4 5 6 7 8 9 10 11 12 13 14 15 16 17 18
000
FTUS43 KGRR 281140
TAFBTL
TAF
KBTL 281140Z 2812/2912 05007KT P6SM BKN100
     FM281800 07008KT P6SM -SHRA SCT025 OVC040
     FM290600 04008KT 5SM -SHRA BR SCT015 OVC025=

USA.gov is the U.S. government's official web portal to all federal, state and local government web resources and services.